createdAt,value
2023-05-20T00:00:12.132Z,12.91
2023-05-20T00:01:11.992Z,12.91
2023-05-20T00:02:12.675Z,12.91
2023-05-20T00:03:14.075Z,12.9
2023-05-20T00:04:15.246Z,12.87
2023-05-20T00:06:15.328Z,12.84
2023-05-20T00:07:15.653Z,12.95
2023-05-20T00:08:16.067Z,12.91
2023-05-20T00:09:17.026Z,12.87
2023-05-20T00:10:17.350Z,12.87
2023-05-20T00:11:17.880Z,12.87
2023-05-20T00:12:18.882Z,12.9
2023-05-20T00:13:19.603Z,12.81
2023-05-20T00:14:20.288Z,12.81
2023-05-20T00:15:20.643Z,12.8
2023-05-20T00:16:21.311Z,12.78
2023-05-20T00:17:21.926Z,12.91
2023-05-20T00:18:23.174Z,12.8
2023-05-20T00:19:23.453Z,12.76
2023-05-20T00:20:23.419Z,12.78
2023-05-20T00:21:24.174Z,12.8
2023-05-20T00:22:24.932Z,12.66
2023-05-20T00:23:25.218Z,12.66
2023-05-20T00:24:25.915Z,12.68
2023-05-20T00:25:27.046Z,12.61
2023-05-20T00:26:27.120Z,12.62
2023-05-20T00:27:27.541Z,12.57
2023-05-20T00:28:28.243Z,12.54
2023-05-20T00:29:28.595Z,12.54
2023-05-20T00:30:29.586Z,12.53
2023-05-20T00:31:30.273Z,12.5
2023-05-20T00:32:31.275Z,12.53
2023-05-20T00:33:30.660Z,12.45
2023-05-20T00:34:30.948Z,12.44
2023-05-20T00:35:32.230Z,12.4
2023-05-20T00:36:32.868Z,12.36
2023-05-20T00:37:33.925Z,12.33
2023-05-20T00:38:34.625Z,12.33
2023-05-20T00:39:35.121Z,12.33
2023-05-20T00:40:35.818Z,12.48
2023-05-20T00:41:36.553Z,12.37
2023-05-20T00:42:37.449Z,12.37
2023-05-20T00:43:37.956Z,12.37
2023-05-20T00:44:38.893Z,12.39
2023-05-20T00:45:40.498Z,12.33
2023-05-20T00:46:40.178Z,12.39
2023-05-20T00:47:41.414Z,12.37
2023-05-20T00:48:41.981Z,12.36
2023-05-20T00:49:42.887Z,12.35
2023-05-20T00:50:44.110Z,12.36
2023-05-20T00:51:45.068Z,12.4
2023-05-20T00:52:44.864Z,12.48
2023-05-20T00:53:45.346Z,12.36
2023-05-20T00:54:46.117Z,12.32
2023-05-20T00:55:46.765Z,12.45
2023-05-20T00:56:47.529Z,12.37
2023-05-20T00:57:47.953Z,12.36
2023-05-20T00:58:48.736Z,12.29
2023-05-20T00:59:50.742Z,12.26
2023-05-20T01:00:50.691Z,12.29
2023-05-20T01:01:51.109Z,12.29
2023-05-20T01:02:51.217Z,12.28
2023-05-20T01:03:51.579Z,12.25
2023-05-20T01:04:52.193Z,12.32
2023-05-20T01:05:52.922Z,12.29
2023-05-20T01:06:53.319Z,12.25
2023-05-20T01:07:54.085Z,12.21
2023-05-20T01:08:54.564Z,12.32
2023-05-20T01:09:54.764Z,12.26
2023-05-20T01:10:55.551Z,12.3
2023-05-20T01:11:56.492Z,12.29
2023-05-20T01:12:56.963Z,12.28
2023-05-20T01:13:57.518Z,12.28
2023-05-20T01:14:57.825Z,12.3
2023-05-20T01:15:58.602Z,12.14
2023-05-20T01:16:59.385Z,12.2
2023-05-20T01:18:00.225Z,12.25
2023-05-20T01:19:00.350Z,12.32
2023-05-20T01:20:01.044Z,12.26
2023-05-20T01:21:01.997Z,12.17
2023-05-20T01:22:02.733Z,12.28
2023-05-20T01:23:03.665Z,12.21
2023-05-20T01:24:04.163Z,12.23
2023-05-20T01:25:05.075Z,12.18
2023-05-20T01:26:05.756Z,12.17
2023-05-20T01:27:06.660Z,12.25
2023-05-20T01:28:06.863Z,12.21
2023-05-20T01:29:07.369Z,12.21
2023-05-20T01:30:08.052Z,12.12
2023-05-20T01:31:08.899Z,12.26
2023-05-20T01:32:09.039Z,12.15
2023-05-20T01:33:09.523Z,12.2
2023-05-20T01:34:10.405Z,12.2
2023-05-20T01:35:11.117Z,12.23
2023-05-20T01:36:12.013Z,12.15
2023-05-20T01:37:13.038Z,12.23
2023-05-20T01:38:13.863Z,12.18
2023-05-20T01:39:13.765Z,12.23
2023-05-20T01:40:14.254Z,12.26
2023-05-20T01:41:14.565Z,12.26
2023-05-20T01:42:15.060Z,12.28
2023-05-20T01:43:18.002Z,12.33
2023-05-20T01:44:16.491Z,12.18
2023-05-20T01:45:17.374Z,12.26
2023-05-20T01:46:18.507Z,12.23
2023-05-20T01:47:18.458Z,12.21
2023-05-20T01:48:18.752Z,12.21
2023-05-20T01:49:19.204Z,12.15
2023-05-20T01:50:19.718Z,12.2
2023-05-20T01:51:20.308Z,12.18
2023-05-20T01:52:21.320Z,12.17
2023-05-20T01:53:21.074Z,12.15
2023-05-20T01:54:21.759Z,12.1
2023-05-20T01:55:22.784Z,12.07
2023-05-20T01:56:23.367Z,12.08
2023-05-20T01:57:24.131Z,12.05
2023-05-20T01:58:24.594Z,12.02
2023-05-20T01:59:25.277Z,12.03
2023-05-20T02:00:25.441Z,12
2023-05-20T02:01:26.664Z,12.02
2023-05-20T02:02:27.045Z,11.93
2023-05-20T02:03:27.540Z,11.91
2023-05-20T02:04:27.284Z,11.95
2023-05-20T02:05:27.879Z,11.89
2023-05-20T02:06:28.734Z,11.83
2023-05-20T02:07:29.274Z,11.86
2023-05-20T02:08:29.877Z,11.86
2023-05-20T02:09:30.732Z,11.85
2023-05-20T02:10:31.427Z,11.76
2023-05-20T02:11:32.105Z,11.81
2023-05-20T02:12:32.657Z,11.65
2023-05-20T02:13:33.143Z,11.68
2023-05-20T02:14:33.634Z,11.55
2023-05-20T02:15:35.032Z,11.55
2023-05-20T02:16:35.047Z,11.58
2023-05-20T02:17:34.786Z,11.56
2023-05-20T02:18:35.303Z,11.41
2023-05-20T02:19:36.000Z,11.44
2023-05-20T02:20:36.871Z,11.48
2023-05-20T02:21:37.559Z,11.4
2023-05-20T02:22:38.297Z,11.41
2023-05-20T02:23:39.206Z,11.37
2023-05-20T02:24:40.089Z,11.43
2023-05-20T02:25:41.070Z,11.4
2023-05-20T02:26:40.976Z,11.34
2023-05-20T02:27:40.950Z,11.34
2023-05-20T02:28:40.799Z,11.41
2023-05-20T02:29:41.739Z,11.35
2023-05-20T02:30:42.640Z,11.33
2023-05-20T02:31:43.148Z,11.31
2023-05-20T02:32:43.997Z,11.3
2023-05-20T02:33:44.132Z,11.25
2023-05-20T02:34:44.817Z,11.27
2023-05-20T02:35:45.495Z,11.26
2023-05-20T02:36:46.178Z,11.25
2023-05-20T02:37:46.910Z,11.25
2023-05-20T02:38:47.313Z,11.23
2023-05-20T02:39:47.974Z,11.23
2023-05-20T02:40:48.249Z,11.2
2023-05-20T02:41:49.129Z,11.23
2023-05-20T02:42:49.883Z,11.2
2023-05-20T02:43:50.363Z,11.25
2023-05-20T02:44:51.272Z,11.13
2023-05-20T02:45:53.005Z,11.2
2023-05-20T02:46:52.626Z,11.16
2023-05-20T02:47:53.443Z,11.1
2023-05-20T02:48:53.524Z,11.18
2023-05-20T02:49:54.392Z,11.18
2023-05-20T02:50:55.079Z,11.1
2023-05-20T02:51:55.723Z,11.12
2023-05-20T02:52:56.108Z,11.15
2023-05-20T02:53:56.820Z,11.16
2023-05-20T02:54:57.772Z,11.1
2023-05-20T02:55:58.681Z,11.18
2023-05-20T02:56:59.173Z,11.13
2023-05-20T02:58:00.189Z,11.12
2023-05-20T02:59:00.764Z,11.12
2023-05-20T03:00:01.240Z,11.12
2023-05-20T03:01:02.220Z,11.16
2023-05-20T03:02:03.029Z,11.08
2023-05-20T03:03:03.907Z,11.07
2023-05-20T03:04:04.582Z,11.08
2023-05-20T03:05:05.542Z,11.07
2023-05-20T03:06:06.235Z,11.05
2023-05-20T03:07:06.651Z,11.05
2023-05-20T03:08:07.438Z,11.01
2023-05-20T03:09:07.641Z,11.04
2023-05-20T03:10:08.636Z,11.04
2023-05-20T03:11:10.722Z,11.04
2023-05-20T03:13:10.628Z,11.1
2023-05-20T03:14:11.507Z,11.02
2023-05-20T03:15:12.007Z,11.07
2023-05-20T03:16:13.065Z,11.04
2023-05-20T03:17:13.363Z,11.01
2023-05-20T03:18:13.977Z,10.9
2023-05-20T03:19:14.862Z,11.02
2023-05-20T03:20:15.877Z,11.04
2023-05-20T03:21:16.357Z,10.98
2023-05-20T03:22:17.058Z,11.02
2023-05-20T03:23:18.197Z,10.95
2023-05-20T03:24:18.902Z,11.04
2023-05-20T03:25:19.874Z,10.95
2023-05-20T03:26:20.598Z,10.95
2023-05-20T03:27:21.375Z,10.97
2023-05-20T03:28:21.445Z,10.9
2023-05-20T03:29:21.832Z,11
2023-05-20T03:30:22.308Z,10.98
2023-05-20T03:31:23.232Z,10.92
2023-05-20T03:32:23.401Z,10.94
2023-05-20T03:33:24.246Z,11.02
2023-05-20T03:34:24.631Z,11.02
2023-05-20T03:35:25.372Z,11
2023-05-20T03:36:25.504Z,11.07
2023-05-20T03:37:26.442Z,11
2023-05-20T03:38:27.244Z,11.07
2023-05-20T03:39:28.232Z,11
2023-05-20T03:40:28.771Z,11.05
2023-05-20T03:41:29.505Z,11.07
2023-05-20T03:42:30.458Z,10.97
2023-05-20T03:43:31.282Z,11.04
2023-05-20T03:44:31.629Z,11
2023-05-20T03:45:32.150Z,11.02
2023-05-20T03:46:33.042Z,11
2023-05-20T03:47:34.108Z,10.98
2023-05-20T03:48:34.696Z,10.95
2023-05-20T03:49:35.139Z,10.94
2023-05-20T03:50:36.414Z,11
2023-05-20T03:51:36.899Z,10.98
2023-05-20T03:52:37.832Z,11.02
2023-05-20T03:53:38.813Z,11.05
2023-05-20T03:54:38.901Z,11.08
2023-05-20T03:55:39.722Z,11.04
2023-05-20T03:56:40.214Z,11.08
2023-05-20T03:57:41.093Z,11.08
2023-05-20T03:58:41.830Z,11.05
2023-05-20T03:59:42.415Z,11.04
2023-05-20T04:00:42.909Z,11
2023-05-20T04:01:43.682Z,11
2023-05-20T04:02:44.744Z,10.97
2023-05-20T04:03:45.043Z,10.89
2023-05-20T04:04:44.869Z,10.95
2023-05-20T04:05:45.778Z,10.92
2023-05-20T04:06:46.095Z,10.95
2023-05-20T04:07:47.576Z,10.95
2023-05-20T04:08:47.888Z,10.84
2023-05-20T04:09:48.549Z,10.92
2023-05-20T04:10:48.867Z,10.86
2023-05-20T04:11:49.335Z,10.89
2023-05-20T04:12:49.971Z,10.87
2023-05-20T04:13:50.891Z,10.95
2023-05-20T04:14:51.617Z,11
2023-05-20T04:15:51.560Z,10.92
2023-05-20T04:16:52.178Z,10.89
2023-05-20T04:17:53.409Z,10.92
2023-05-20T04:18:53.343Z,10.92
2023-05-20T04:19:53.881Z,10.9
2023-05-20T04:20:54.556Z,10.98
2023-05-20T04:21:55.024Z,10.92
2023-05-20T04:22:55.502Z,10.97
2023-05-20T04:23:56.241Z,11.02
2023-05-20T04:24:56.984Z,11.02
2023-05-20T04:25:57.935Z,11.02
2023-05-20T04:26:58.435Z,11.05
2023-05-20T04:27:58.962Z,11
2023-05-20T04:28:59.510Z,11.07
2023-05-20T04:30:00.966Z,11.1
2023-05-20T04:31:01.640Z,11.04
2023-05-20T04:32:02.443Z,11.01
2023-05-20T04:33:02.816Z,11.12
2023-05-20T04:34:02.816Z,11.02
2023-05-20T04:35:03.565Z,11.08
2023-05-20T04:36:03.462Z,11.04
2023-05-20T04:37:03.976Z,11.1
2023-05-20T04:38:04.870Z,11.02
2023-05-20T04:39:05.595Z,11.04
2023-05-20T04:40:06.373Z,11.1
2023-05-20T04:41:06.867Z,11
2023-05-20T04:42:07.357Z,11.02
2023-05-20T04:43:08.073Z,11.1
2023-05-20T04:44:09.108Z,11.1
2023-05-20T04:45:09.650Z,11.07
2023-05-20T04:46:10.681Z,11.1
2023-05-20T04:47:10.421Z,11.12
2023-05-20T04:48:11.557Z,11.16
2023-05-20T04:49:11.704Z,11.12
2023-05-20T04:50:11.930Z,11.13
2023-05-20T04:51:12.627Z,11.25
2023-05-20T04:52:13.318Z,11.13
2023-05-20T04:53:13.984Z,11.2
2023-05-20T04:54:14.757Z,11.18
2023-05-20T04:55:15.648Z,11.33
2023-05-20T04:56:15.936Z,11.34
2023-05-20T04:57:16.433Z,11.35
2023-05-20T04:58:17.179Z,11.31
2023-05-20T04:59:17.904Z,11.33
2023-05-20T05:00:18.690Z,11.41
2023-05-20T05:01:18.653Z,11.31
2023-05-20T05:02:19.346Z,11.4
2023-05-20T05:03:20.180Z,11.38
2023-05-20T05:04:20.797Z,11.48
2023-05-20T05:05:21.429Z,11.38
2023-05-20T05:06:21.956Z,11.56
2023-05-20T05:07:22.240Z,11.48
2023-05-20T05:08:22.736Z,11.55
2023-05-20T05:09:23.477Z,11.56
2023-05-20T05:10:23.637Z,11.53
2023-05-20T05:11:24.099Z,11.56
2023-05-20T05:12:24.767Z,11.53
2023-05-20T05:13:25.440Z,11.65
2023-05-20T05:14:26.356Z,11.65
2023-05-20T05:15:27.250Z,11.68
2023-05-20T05:16:28.118Z,11.63
2023-05-20T05:17:29.027Z,11.63
2023-05-20T05:18:29.029Z,11.62
2023-05-20T05:19:29.763Z,11.67
2023-05-20T05:20:30.680Z,11.73
2023-05-20T05:21:30.969Z,11.76
2023-05-20T05:22:31.691Z,11.8
2023-05-20T05:23:32.388Z,11.89
2023-05-20T05:24:33.146Z,11.86
2023-05-20T05:25:34.160Z,11.83
2023-05-20T05:26:33.756Z,11.81
2023-05-20T05:27:34.441Z,11.85
2023-05-20T05:28:34.886Z,11.88
2023-05-20T05:29:35.999Z,11.85
2023-05-20T05:30:36.216Z,11.86
2023-05-20T05:31:37.095Z,11.91
2023-05-20T05:32:38.014Z,12.05
2023-05-20T05:33:38.164Z,11.93
2023-05-20T05:34:38.897Z,11.99
2023-05-20T05:35:39.721Z,12.02
2023-05-20T05:36:40.246Z,12.07
2023-05-20T05:37:40.732Z,12.14
2023-05-20T05:38:41.638Z,12.08
2023-05-20T05:39:42.368Z,12.07
2023-05-20T05:40:43.099Z,12.05
2023-05-20T05:41:43.991Z,12.03
2023-05-20T05:42:44.694Z,12.08
2023-05-20T05:43:45.036Z,12.21
2023-05-20T05:44:46.154Z,12.07
2023-05-20T05:45:47.032Z,12.07
2023-05-20T05:46:47.868Z,12.12
2023-05-20T05:47:48.725Z,12.17
2023-05-20T05:48:49.026Z,12.21
2023-05-20T05:49:49.373Z,12.2
2023-05-20T05:50:50.308Z,12.11
2023-05-20T05:51:50.226Z,12.17
2023-05-20T05:52:51.359Z,12.03
2023-05-20T05:53:51.840Z,12.03
2023-05-20T05:54:52.804Z,12.2
2023-05-20T05:55:53.512Z,12.11
2023-05-20T05:56:54.453Z,12.26
2023-05-20T05:57:54.488Z,12.26
2023-05-20T05:58:55.361Z,12.35
2023-05-20T05:59:56.345Z,12.33
2023-05-20T06:00:57.523Z,12.36
2023-05-20T06:01:58.179Z,12.39
2023-05-20T06:02:59.411Z,12.47
2023-05-20T06:03:59.621Z,12.51
2023-05-20T06:04:59.201Z,12.61
2023-05-20T06:05:59.727Z,12.65
2023-05-20T06:07:00.410Z,12.65
2023-05-20T06:08:00.761Z,12.69
2023-05-20T06:09:01.266Z,12.68
2023-05-20T06:10:02.220Z,12.63
2023-05-20T06:11:02.263Z,12.65
2023-05-20T06:12:03.541Z,12.75
2023-05-20T06:13:04.443Z,12.83
2023-05-20T06:14:05.124Z,12.87
2023-05-20T06:15:05.685Z,12.78
2023-05-20T06:16:06.482Z,12.95
2023-05-20T06:17:07.556Z,12.99
2023-05-20T06:18:08.079Z,13.11
2023-05-20T06:19:10.124Z,13.24
2023-05-20T06:22:10.176Z,13.27
2023-05-20T06:23:10.661Z,13.4
2023-05-20T06:24:11.049Z,13.52
2023-05-20T06:25:12.041Z,13.6
2023-05-20T06:26:12.733Z,13.7
2023-05-20T06:27:13.292Z,13.79
2023-05-20T06:28:14.186Z,13.87
2023-05-20T06:29:14.890Z,13.98
2023-05-20T06:30:16.007Z,14.04
2023-05-20T06:31:16.797Z,14.01
2023-05-20T06:32:18.092Z,14.15
2023-05-20T06:33:17.988Z,14.2
2023-05-20T06:34:19.073Z,14.23
2023-05-20T06:35:19.587Z,14.37
2023-05-20T06:36:20.535Z,14.33
2023-05-20T06:37:20.895Z,14.33
2023-05-20T06:38:21.855Z,14.34
2023-05-20T06:39:22.536Z,14.44
2023-05-20T06:40:23.303Z,14.51
2023-05-20T06:41:23.353Z,14.52
2023-05-20T06:42:23.657Z,14.61
2023-05-20T06:43:24.340Z,14.7
2023-05-20T06:44:24.617Z,14.85
2023-05-20T06:45:25.352Z,14.87
2023-05-20T06:46:26.571Z,14.89
2023-05-20T06:47:27.084Z,15
2023-05-20T06:48:28.079Z,15.08
2023-05-20T06:49:28.440Z,15.08
2023-05-20T06:50:28.992Z,15.02
2023-05-20T06:51:29.645Z,15.15
2023-05-20T06:52:29.925Z,15.14
2023-05-20T06:53:30.855Z,15.18
2023-05-20T06:54:31.561Z,15.27
2023-05-20T06:55:32.953Z,15.35
2023-05-20T06:56:32.938Z,15.35
2023-05-20T06:57:33.660Z,15.27
2023-05-20T06:58:34.159Z,15.14
2023-05-20T06:59:34.847Z,15.17
2023-05-20T07:00:35.788Z,15.18
2023-05-20T07:02:36.677Z,15.11
2023-05-20T07:03:37.634Z,15.02
2023-05-20T07:04:38.322Z,14.87
2023-05-20T07:05:39.284Z,14.99
2023-05-20T07:06:40.206Z,14.99
2023-05-20T07:07:40.677Z,15
2023-05-20T07:08:41.170Z,15.05
2023-05-20T07:09:42.045Z,15.04
2023-05-20T07:10:42.786Z,15.15
2023-05-20T07:11:43.454Z,15.18
2023-05-20T07:12:43.951Z,15.18
2023-05-20T07:13:44.703Z,15.18
2023-05-20T07:14:45.793Z,15.22
2023-05-20T07:15:46.547Z,15.33
2023-05-20T07:16:47.064Z,15.33
2023-05-20T07:17:47.877Z,15.57
2023-05-20T07:18:47.791Z,15.6
2023-05-20T07:19:48.428Z,15.72
2023-05-20T07:20:48.912Z,15.7
2023-05-20T07:21:49.542Z,15.76
2023-05-20T07:22:50.440Z,15.88
2023-05-20T07:23:51.140Z,15.76
2023-05-20T07:24:51.840Z,15.63
2023-05-20T07:25:52.416Z,15.52
2023-05-20T07:26:52.541Z,15.5
2023-05-20T07:27:53.249Z,15.45
2023-05-20T07:28:53.529Z,15.36
2023-05-20T07:29:54.030Z,15.43
2023-05-20T07:30:56.561Z,15.47
2023-05-20T07:32:55.214Z,15.69
2023-05-20T07:33:55.920Z,15.8
2023-05-20T07:34:56.256Z,15.76
2023-05-20T07:35:56.354Z,15.84
2023-05-20T07:36:57.104Z,15.81
2023-05-20T07:37:57.603Z,15.72
2023-05-20T07:39:12.499Z,15.69
2023-05-20T07:40:59.566Z,15.55
2023-05-20T07:42:00.269Z,15.66
2023-05-20T07:43:00.747Z,15.84
2023-05-20T07:44:01.240Z,15.83
2023-05-20T07:45:01.779Z,15.96
2023-05-20T07:46:02.467Z,16.03
2023-05-20T07:47:02.986Z,16.25
2023-05-20T07:48:03.819Z,16.43
2023-05-20T07:49:04.029Z,16.58
2023-05-20T07:50:04.757Z,16.66
2023-05-20T07:51:05.466Z,16.66
2023-05-20T07:52:08.256Z,16.68
2023-05-20T07:54:07.205Z,16.83
2023-05-20T07:55:07.919Z,16.8
2023-05-20T07:56:08.668Z,16.83
2023-05-20T07:57:08.584Z,16.76
2023-05-20T07:58:08.873Z,16.79
2023-05-20T07:59:09.779Z,16.84
2023-05-20T08:00:10.286Z,16.76
2023-05-20T08:01:10.999Z,16.77
2023-05-20T08:02:11.978Z,16.73
2023-05-20T08:03:14.017Z,16.76
2023-05-20T08:04:13.613Z,16.8
2023-05-20T08:05:13.490Z,16.83
2023-05-20T08:06:14.600Z,16.91
2023-05-20T08:07:14.460Z,16.98
2023-05-20T08:08:14.738Z,16.99
2023-05-20T08:09:15.409Z,16.94
2023-05-20T08:10:15.668Z,16.95
2023-05-20T08:11:16.651Z,16.97
2023-05-20T08:12:17.298Z,16.97
2023-05-20T08:13:18.036Z,16.97
2023-05-20T08:14:18.557Z,17.23
2023-05-20T08:15:19.313Z,17.2
2023-05-20T08:16:20.535Z,17.2
2023-05-20T08:17:20.742Z,17.04
2023-05-20T08:18:20.503Z,17.05
2023-05-20T08:19:21.364Z,17.01
2023-05-20T08:20:22.227Z,17.07
2023-05-20T08:21:23.161Z,17.22
2023-05-20T08:22:23.996Z,17.38
2023-05-20T08:23:24.515Z,17.54
2023-05-20T08:24:24.981Z,17.79
2023-05-20T08:25:25.949Z,18
2023-05-20T08:26:26.949Z,17.97
2023-05-20T08:27:27.654Z,17.98
2023-05-20T08:28:28.234Z,18.08
2023-05-20T08:29:28.922Z,18.02
2023-05-20T08:30:29.625Z,17.84
2023-05-20T08:31:30.962Z,17.72
2023-05-20T08:32:31.429Z,17.52
2023-05-20T08:33:32.251Z,17.46
2023-05-20T08:34:33.353Z,17.37
2023-05-20T08:35:34.385Z,17.28
2023-05-20T08:36:34.478Z,17.16
2023-05-20T08:37:35.039Z,17.24
2023-05-20T08:38:35.817Z,17.17
2023-05-20T08:39:36.513Z,17.22
2023-05-20T08:40:36.832Z,17.22
2023-05-20T08:41:38.174Z,17.2
2023-05-20T08:42:38.617Z,17.24
2023-05-20T08:43:39.515Z,17.38
2023-05-20T08:44:40.187Z,17.34
2023-05-20T08:45:40.937Z,17.41
2023-05-20T08:46:41.384Z,17.34
2023-05-20T08:47:41.492Z,17.38
2023-05-20T08:48:42.506Z,17.39
2023-05-20T08:49:43.199Z,17.49
2023-05-20T08:50:43.906Z,17.66
2023-05-20T08:51:43.799Z,17.73
2023-05-20T08:52:44.672Z,17.9
2023-05-20T08:53:45.562Z,17.97
2023-05-20T08:54:46.059Z,18.09
2023-05-20T08:55:46.577Z,18.26
2023-05-20T08:56:47.857Z,18.42
2023-05-20T08:57:47.969Z,18.57
2023-05-20T08:58:48.669Z,18.76
2023-05-20T08:59:48.767Z,18.97
2023-05-20T09:00:49.869Z,18.97
2023-05-20T09:01:51.060Z,19.01
2023-05-20T09:02:50.722Z,18.71
2023-05-20T09:03:51.187Z,18.88
2023-05-20T09:04:51.775Z,18.71
2023-05-20T09:05:52.692Z,18.74
2023-05-20T09:06:52.814Z,18.79
2023-05-20T09:07:53.768Z,18.67
2023-05-20T09:08:54.775Z,18.73
2023-05-20T09:09:54.682Z,18.63
2023-05-20T09:10:55.465Z,18.68
2023-05-20T09:11:56.377Z,18.79
2023-05-20T09:12:57.088Z,18.88
2023-05-20T09:13:57.817Z,19.01
2023-05-20T09:14:57.761Z,19.08
2023-05-20T09:15:58.363Z,19.08
2023-05-20T09:16:59.416Z,19.17
2023-05-20T09:17:59.278Z,19.22
2023-05-20T09:19:00.128Z,19.42
2023-05-20T09:20:00.791Z,19.35
2023-05-20T09:21:01.351Z,19.52
2023-05-20T09:22:02.281Z,19.82
2023-05-20T09:23:02.681Z,19.96
2023-05-20T09:24:03.947Z,20.08
2023-05-20T09:25:04.844Z,20.12
2023-05-20T09:26:05.741Z,19.96
2023-05-20T09:27:06.069Z,19.97
2023-05-20T09:28:06.776Z,19.66
2023-05-20T09:29:07.683Z,19.67
2023-05-20T09:30:08.569Z,19.75
2023-05-20T09:31:09.550Z,20
2023-05-20T09:32:09.875Z,20.21
2023-05-20T09:33:10.196Z,20.39
2023-05-20T09:34:10.930Z,20.53
2023-05-20T09:35:11.472Z,20.73
2023-05-20T09:36:14.612Z,20.98
2023-05-20T09:37:12.768Z,21.17
2023-05-20T09:38:13.486Z,21.04
2023-05-20T09:39:14.181Z,21.15
2023-05-20T09:40:14.717Z,21.14
2023-05-20T09:41:15.797Z,21.17
2023-05-20T09:42:16.354Z,21.11
2023-05-20T09:43:16.495Z,21.13
2023-05-20T09:44:17.012Z,21.28
2023-05-20T09:45:17.536Z,21.38
2023-05-20T09:46:18.365Z,21.33
2023-05-20T09:47:18.433Z,21.3
2023-05-20T09:48:19.245Z,21.35
2023-05-20T09:49:19.561Z,21.03
2023-05-20T09:50:20.274Z,20.93
2023-05-20T09:51:21.182Z,20.83
2023-05-20T09:52:22.088Z,20.82
2023-05-20T09:53:22.741Z,20.82
2023-05-20T09:54:23.833Z,20.77
2023-05-20T09:55:24.330Z,20.75
2023-05-20T09:56:24.535Z,20.75
2023-05-20T09:57:25.294Z,20.83
2023-05-20T09:58:26.237Z,20.85
2023-05-20T09:59:27.135Z,20.96
2023-05-20T10:00:28.029Z,20.92
2023-05-20T10:01:28.806Z,20.9
2023-05-20T10:02:29.954Z,21.01
2023-05-20T10:03:30.436Z,20.92
2023-05-20T10:04:30.656Z,21.05
2023-05-20T10:05:31.390Z,21.14
2023-05-20T10:06:31.578Z,21.26
2023-05-20T10:07:47.003Z,21.4
2023-05-20T10:09:33.227Z,21.63
2023-05-20T10:10:34.156Z,21.81
2023-05-20T10:11:34.888Z,21.89
2023-05-20T10:12:35.841Z,22.15
2023-05-20T10:13:36.225Z,22.34
2023-05-20T10:14:36.847Z,22.59
2023-05-20T10:15:38.218Z,22.81
2023-05-20T10:16:38.222Z,23.07
2023-05-20T10:17:39.138Z,23.18
2023-05-20T10:18:39.915Z,23.21
2023-05-20T10:19:40.688Z,23.4
2023-05-20T10:20:41.373Z,23.25
2023-05-20T10:21:42.299Z,22.98
2023-05-20T10:22:42.992Z,22.76
2023-05-20T10:23:43.797Z,22.67
2023-05-20T10:24:44.270Z,22.63
2023-05-20T10:25:44.826Z,22.74
2023-05-20T10:26:45.218Z,22.96
2023-05-20T10:27:46.196Z,22.98
2023-05-20T10:28:46.171Z,23.11
2023-05-20T10:30:50.103Z,23.26
2023-05-20T10:32:49.837Z,23.49
2023-05-20T10:33:50.208Z,23.67
2023-05-20T10:34:50.519Z,23.92
2023-05-20T10:35:51.199Z,23.94
2023-05-20T10:36:51.750Z,23.81
2023-05-20T10:37:52.432Z,23.47
2023-05-20T10:38:52.637Z,23.16
2023-05-20T10:39:52.337Z,22.8
2023-05-20T10:40:52.897Z,22.44
2023-05-20T10:41:53.631Z,22.28
2023-05-20T10:42:54.287Z,22.38
2023-05-20T10:43:54.547Z,22.68
2023-05-20T10:44:55.053Z,22.89
2023-05-20T10:45:56.008Z,23.14
2023-05-20T10:47:27.199Z,23.39
2023-05-20T10:48:58.608Z,23.64
2023-05-20T10:49:58.795Z,23.81
2023-05-20T10:50:59.766Z,23.92
2023-05-20T10:52:00.620Z,24.04
2023-05-20T10:53:01.289Z,24.19
2023-05-20T10:54:09.134Z,24.29
2023-05-20T10:55:09.748Z,24.41
2023-05-20T10:56:10.636Z,24.53
2023-05-20T10:57:11.360Z,24.66
2023-05-20T10:58:12.051Z,24.85
2023-05-20T10:59:12.792Z,24.93
2023-05-20T11:00:13.894Z,25
2023-05-20T11:01:15.023Z,25.06
2023-05-20T11:02:15.329Z,24.94
2023-05-20T11:03:15.939Z,24.62
2023-05-20T11:04:16.922Z,24.55
2023-05-20T11:05:17.121Z,24.5
2023-05-20T11:06:19.082Z,24.41
2023-05-20T11:07:18.696Z,24.43
2023-05-20T11:08:30.044Z,24.56
2023-05-20T11:10:21.647Z,24.62
2023-05-20T11:11:22.485Z,24.63
2023-05-20T11:12:23.201Z,24.74
2023-05-20T11:13:24.530Z,24.69
2023-05-20T11:14:24.255Z,24.69
2023-05-20T11:15:24.730Z,24.71
2023-05-20T11:16:25.710Z,24.74
2023-05-20T11:17:26.817Z,24.63
2023-05-20T11:18:27.725Z,24.53
2023-05-20T11:19:29.186Z,24.37
2023-05-20T11:20:29.468Z,24.29
2023-05-20T11:21:29.746Z,24.21
2023-05-20T11:22:30.471Z,24.07
2023-05-20T11:23:30.862Z,24.03
2023-05-20T11:24:31.153Z,23.92
2023-05-20T11:25:31.888Z,23.85
2023-05-20T11:26:32.900Z,23.73
2023-05-20T11:27:33.177Z,23.55
2023-05-20T11:28:33.828Z,23.32
2023-05-20T11:29:34.392Z,23.1
2023-05-20T11:30:35.881Z,22.93
2023-05-20T11:31:36.045Z,22.76
2023-05-20T11:32:37.127Z,22.63
2023-05-20T11:33:36.912Z,22.47
2023-05-20T11:34:37.796Z,22.44
2023-05-20T11:35:38.321Z,22.4
2023-05-20T11:36:39.040Z,22.37
2023-05-20T11:37:39.961Z,22.36
2023-05-20T11:38:40.253Z,22.36
2023-05-20T11:39:41.206Z,22.33
2023-05-20T11:40:57.025Z,22.49
2023-05-20T11:42:42.498Z,22.73
2023-05-20T11:43:43.610Z,22.68
2023-05-20T11:44:43.751Z,22.86
2023-05-20T11:45:44.314Z,22.84
2023-05-20T11:46:45.341Z,22.84
2023-05-20T11:47:46.331Z,22.8
2023-05-20T11:48:47.111Z,22.78
2023-05-20T11:49:47.463Z,22.89
2023-05-20T11:50:48.011Z,23.06
2023-05-20T11:51:48.237Z,23.21
2023-05-20T11:52:49.227Z,23.54
2023-05-20T11:53:50.141Z,23.48
2023-05-20T11:54:50.651Z,23.51
2023-05-20T11:55:50.923Z,23.54
2023-05-20T11:56:51.891Z,23.59
2023-05-20T11:57:52.167Z,23.62
2023-05-20T11:58:52.945Z,23.67
2023-05-20T11:59:53.874Z,23.81
2023-05-20T12:01:22.064Z,24.03
2023-05-20T12:02:55.786Z,24.16
2023-05-20T12:03:57.208Z,24.31
2023-05-20T12:04:58.056Z,24.31
2023-05-20T12:05:57.965Z,24.29
2023-05-20T12:06:58.675Z,24.18
2023-05-20T12:08:00.824Z,24.09
2023-05-20T12:10:00.489Z,24.28
2023-05-20T12:11:01.197Z,24.48
2023-05-20T12:12:01.918Z,24.56
2023-05-20T12:13:01.670Z,24.58
2023-05-20T12:14:02.462Z,24.68
2023-05-20T12:15:03.250Z,24.88
2023-05-20T12:16:03.871Z,24.81
2023-05-20T12:17:04.609Z,24.74
2023-05-20T12:18:05.580Z,24.61
2023-05-20T12:19:06.620Z,24.56
2023-05-20T12:20:06.912Z,24.48
2023-05-20T12:21:07.440Z,24.43
2023-05-20T12:22:08.026Z,24.25
2023-05-20T12:23:08.843Z,24.16
2023-05-20T12:24:09.556Z,24.18
2023-05-20T12:25:09.689Z,24.24
2023-05-20T12:26:10.874Z,24.21
2023-05-20T12:27:11.794Z,24.16
2023-05-20T12:28:12.396Z,24.11
2023-05-20T12:29:13.411Z,24.04
2023-05-20T12:30:14.325Z,24.09
2023-05-20T12:31:15.204Z,24.04
2023-05-20T12:32:15.298Z,24.09
2023-05-20T12:33:15.710Z,24.11
2023-05-20T12:34:16.284Z,24.09
2023-05-20T12:35:17.069Z,24.13
2023-05-20T12:36:17.564Z,24.16
2023-05-20T12:37:18.684Z,24.14
2023-05-20T12:38:19.517Z,24.04
2023-05-20T12:39:19.825Z,24.06
2023-05-20T12:40:20.211Z,23.91
2023-05-20T12:41:20.752Z,23.88
2023-05-20T12:42:21.460Z,23.84
2023-05-20T12:43:21.952Z,23.89
2023-05-20T12:44:22.337Z,23.95
2023-05-20T12:45:22.034Z,23.96
2023-05-20T12:46:23.397Z,23.99
2023-05-20T12:47:24.182Z,24.07
2023-05-20T12:48:24.565Z,24
2023-05-20T12:49:25.283Z,24.07
2023-05-20T12:50:26.246Z,23.86
2023-05-20T12:51:26.735Z,23.95
2023-05-20T12:52:28.570Z,23.88
2023-05-20T12:54:27.772Z,23.86
2023-05-20T12:55:28.478Z,23.89
2023-05-20T12:56:28.756Z,23.76
2023-05-20T12:57:29.551Z,23.76
2023-05-20T12:58:30.023Z,23.76
2023-05-20T12:59:30.992Z,23.7
2023-05-20T13:00:31.100Z,23.59
2023-05-20T13:01:31.567Z,23.62
2023-05-20T13:02:32.706Z,23.63
2023-05-20T13:03:32.642Z,23.62
2023-05-20T13:04:32.585Z,23.67
2023-05-20T13:05:33.430Z,23.63
2023-05-20T13:06:33.765Z,23.58
2023-05-20T13:07:34.540Z,23.48
2023-05-20T13:08:35.051Z,23.47
2023-05-20T13:09:35.583Z,23.4
2023-05-20T13:10:36.807Z,23.48
2023-05-20T13:11:37.069Z,23.45
2023-05-20T13:12:37.547Z,23.42
2023-05-20T13:13:38.305Z,23.33
2023-05-20T13:14:39.246Z,23.34
2023-05-20T13:15:39.746Z,23.4
2023-05-20T13:16:40.471Z,23.34
2023-05-20T13:17:41.187Z,23.36
2023-05-20T13:18:41.656Z,23.34
2023-05-20T13:19:42.423Z,23.23
2023-05-20T13:20:43.040Z,23.16
2023-05-20T13:21:43.977Z,23.23